Time;durP1;ratioP1;P1;durP2;ratioP2;P2;SDS_P1;SDS_P2;PMS_P1;PMS_P2;Temp;Humidity;BMP_temperature;BMP_pressure;BME280_temperature;BME280_humidity;BME280_pressure;Samples;Min_cycle;Max_cycle;Signal;HPM_P1;HPM_P2
2021/05/24 00:02:14;;;;;;;5.90;3.47;;;;;;;;;;5032990;28;20210;-58
2021/05/24 00:04:41;;;;;;;5.75;3.40;;;;;;;;;;5033206;28;20268;-58
2021/05/24 00:07:07;;;;;;;4.32;3.58;;;;;;;;;;5033021;28;20209;-59
2021/05/24 00:09:34;;;;;;;5.35;3.00;;;;;;;;;;5032943;28;20210;-58
2021/05/24 00:12:02;;;;;;;4.90;4.15;;;;;;;;;;5033202;28;20202;-56
2021/05/24 00:14:31;;;;;;;5.38;3.40;;;;;;;;;;5033253;28;20256;-57
2021/05/24 00:16:57;;;;;;;5.28;3.50;;;;;;;;;;5033032;28;20198;-57
2021/05/24 00:19:25;;;;;;;4.80;3.20;;;;;;;;;;5033050;28;20198;-56
2021/05/24 00:21:52;;;;;;;4.03;3.13;;;;;;;;;;5033080;28;20610;-58
2021/05/24 00:24:18;;;;;;;4.55;3.47;;;;;;;;;;5036013;28;20198;-56
2021/05/24 00:26:45;;;;;;;4.55;3.20;;;;;;;;;;5037160;28;20210;-57
2021/05/24 00:29:18;;;;;;;4.90;3.40;;;;;;;;;;5037106;28;20309;-56
2021/05/24 00:31:45;;;;;;;5.82;3.42;;;;;;;;;;5037078;28;20182;-57
2021/05/24 00:34:12;;;;;;;3.38;3.08;;;;;;;;;;5036736;28;20744;-58
2021/05/24 00:36:40;;;;;;;5.45;3.70;;;;;;;;;;5036679;28;20673;-57
2021/05/24 00:39:07;;;;;;;3.97;3.58;;;;;;;;;;5036765;28;20233;-57
2021/05/24 00:41:35;;;;;;;5.35;3.88;;;;;;;;;;5036795;28;20202;-58
2021/05/24 00:44:02;;;;;;;4.03;3.10;;;;;;;;;;5037618;28;20543;-57
2021/05/24 00:46:29;;;;;;;5.53;3.50;;;;;;;;;;5036501;28;20668;-57
2021/05/24 00:48:55;;;;;;;4.93;3.42;;;;;;;;;;5036628;28;20221;-58
2021/05/24 00:51:22;;;;;;;3.33;2.90;;;;;;;;;;5036738;28;20214;-58
2021/05/24 00:53:50;;;;;;;5.40;3.50;;;;;;;;;;5036391;28;20195;-58
2021/05/24 00:56:17;;;;;;;3.67;3.33;;;;;;;;;;5036338;28;20209;-58
2021/05/24 00:58:44;;;;;;;5.15;3.10;;;;;;;;;;5036248;28;20597;-58
2021/05/24 01:01:10;;;;;;;3.70;3.40;;;;;;;;;;5036547;28;20206;-57
2021/05/24 01:03:37;;;;;;;4.10;3.70;;;;;;;;;;5036182;28;20213;-56
2021/05/24 01:06:04;;;;;;;3.78;3.08;;;;;;;;;;5036138;28;20240;-57
2021/05/24 01:08:31;;;;;;;4.30;3.47;;;;;;;;;;5036132;28;20292;-57
2021/05/24 01:10:58;;;;;;;3.58;3.10;;;;;;;;;;5036394;28;20206;-57
2021/05/24 01:13:25;;;;;;;3.70;3.40;;;;;;;;;;5035956;28;20214;-56
2021/05/24 01:15:52;;;;;;;3.90;3.30;;;;;;;;;;5035879;28;20211;-56
2021/05/24 01:18:19;;;;;;;4.40;3.35;;;;;;;;;;5035782;28;20587;-56
2021/05/24 01:20:46;;;;;;;5.35;3.40;;;;;;;;;;5036297;28;20256;-57
2021/05/24 01:23:17;;;;;;;5.13;2.90;;;;;;;;;;5036060;28;20199;-56
2021/05/24 01:25:44;;;;;;;5.75;3.22;;;;;;;;;;5035939;28;20797;-57
2021/05/24 01:28:12;;;;;;;5.55;3.15;;;;;;;;;;5035621;28;20614;-57
2021/05/24 01:30:39;;;;;;;3.90;2.75;;;;;;;;;;5036351;28;20202;-57
2021/05/24 01:33:06;;;;;;;5.10;2.75;;;;;;;;;;5035935;28;20260;-57
2021/05/24 01:35:33;;;;;;;4.40;2.50;;;;;;;;;;5035750;28;20213;-57
2021/05/24 01:38:00;;;;;;;3.10;2.67;;;;;;;;;;5036382;28;20249;-57
2021/05/24 01:40:28;;;;;;;3.15;2.83;;;;;;;;;;5036432;28;20206;-57
2021/05/24 01:42:55;;;;;;;3.90;2.92;;;;;;;;;;5035539;28;20206;-57
2021/05/24 01:45:21;;;;;;;5.35;3.65;;;;;;;;;;5036140;28;20202;-57
2021/05/24 01:47:48;;;;;;;3.20;2.70;;;;;;;;;;5035525;28;20640;-57
2021/05/24 01:50:15;;;;;;;3.17;2.55;;;;;;;;;;5035266;28;20580;-57
2021/05/24 01:52:42;;;;;;;10.02;3.30;;;;;;;;;;5035601;28;20198;-57
2021/05/24 01:55:10;;;;;;;2.88;2.55;;;;;;;;;;5035316;28;20203;-57
2021/05/24 01:57:38;;;;;;;2.20;2.00;;;;;;;;;;5035110;28;20218;-57
2021/05/24 02:00:06;;;;;;;3.28;2.70;;;;;;;;;;5035426;28;20608;-57
2021/05/24 02:02:33;;;;;;;3.10;2.42;;;;;;;;;;5035199;28;20213;-57
2021/05/24 02:05:00;;;;;;;4.18;3.05;;;;;;;;;;5035068;28;20225;-57
2021/05/24 02:07:30;;;;;;;7.85;3.22;;;;;;;;;;5035584;28;20238;-57
2021/05/24 02:09:57;;;;;;;3.95;2.83;;;;;;;;;;5034881;28;20658;-57
2021/05/24 02:12:24;;;;;;;3.50;2.38;;;;;;;;;;5035208;28;20214;-57
2021/05/24 02:14:52;;;;;;;4.88;2.90;;;;;;;;;;5035171;28;20202;-57
2021/05/24 02:17:19;;;;;;;3.08;2.67;;;;;;;;;;5034869;28;20705;-57
2021/05/24 02:19:48;;;;;;;3.17;2.88;;;;;;;;;;5035006;28;20642;-57
2021/05/24 02:22:15;;;;;;;5.18;2.60;;;;;;;;;;5034712;28;20569;-57
2021/05/24 02:24:42;;;;;;;3.70;2.58;;;;;;;;;;5034683;28;20199;-58
2021/05/24 02:27:08;;;;;;;3.22;2.30;;;;;;;;;;5034619;28;20237;-57
2021/05/24 02:29:35;;;;;;;4.80;2.63;;;;;;;;;;5034513;28;20693;-57
2021/05/24 02:32:03;;;;;;;3.65;2.70;;;;;;;;;;5034826;28;20206;-57
2021/05/24 02:34:30;;;;;;;3.55;2.75;;;;;;;;;;5034912;28;20205;-57
2021/05/24 02:36:57;;;;;;;3.72;2.60;;;;;;;;;;5034713;28;20557;-57
2021/05/24 02:39:24;;;;;;;3.22;2.78;;;;;;;;;;5035237;28;20202;-57
2021/05/24 02:41:51;;;;;;;6.15;2.72;;;;;;;;;;5034459;28;20256;-58
2021/05/24 02:44:18;;;;;;;3.95;2.50;;;;;;;;;;5034499;28;20205;-57
2021/05/24 02:46:45;;;;;;;2.35;2.15;;;;;;;;;;5033589;28;20203;-58
2021/05/24 02:49:12;;;;;;;2.63;2.42;;;;;;;;;;5034140;28;20222;-57
2021/05/24 02:51:39;;;;;;;3.20;2.40;;;;;;;;;;5034544;28;20210;-58
2021/05/24 02:54:06;;;;;;;3.83;2.10;;;;;;;;;;5034545;28;20210;-57
2021/05/24 02:56:34;;;;;;;3.22;2.65;;;;;;;;;;5034008;28;20248;-57
2021/05/24 02:59:01;;;;;;;2.50;2.30;;;;;;;;;;5034014;28;20272;-57
2021/05/24 03:01:29;;;;;;;3.17;2.20;;;;;;;;;;5034258;28;20206;-57
2021/05/24 03:03:58;;;;;;;2.60;2.40;;;;;;;;;;5034255;28;20209;-57
2021/05/24 03:06:26;;;;;;;3.30;3.05;;;;;;;;;;5034173;28;20210;-57
2021/05/24 03:08:53;;;;;;;2.42;1.95;;;;;;;;;;5033773;28;20237;-57
2021/05/24 03:11:20;;;;;;;4.28;2.50;;;;;;;;;;5033968;28;20677;-57
2021/05/24 03:13:46;;;;;;;4.53;2.67;;;;;;;;;;5034082;28;20233;-57
2021/05/24 03:16:13;;;;;;;2.65;2.35;;;;;;;;;;5033942;28;20574;-57
2021/05/24 03:18:40;;;;;;;2.65;2.45;;;;;;;;;;5034202;28;20226;-57
2021/05/24 03:21:07;;;;;;;3.45;2.45;;;;;;;;;;5033590;28;20206;-57
2021/05/24 03:23:34;;;;;;;2.90;2.38;;;;;;;;;;5033884;28;20625;-57
2021/05/24 03:26:01;;;;;;;3.45;2.38;;;;;;;;;;5033843;28;20229;-57
2021/05/24 03:28:28;;;;;;;2.53;2.30;;;;;;;;;;5033636;28;20230;-57
2021/05/24 03:30:54;;;;;;;2.70;2.20;;;;;;;;;;5033782;28;20579;-57
2021/05/24 03:33:21;;;;;;;3.38;2.38;;;;;;;;;;5033515;28;20669;-57
2021/05/24 03:35:48;;;;;;;3.45;2.25;;;;;;;;;;5033323;28;20673;-57
2021/05/24 03:38:15;;;;;;;4.10;2.30;;;;;;;;;;5033324;28;20234;-57
2021/05/24 03:40:42;;;;;;;3.00;2.22;;;;;;;;;;5033346;28;20669;-57
2021/05/24 03:43:09;;;;;;;2.50;2.30;;;;;;;;;;5033584;28;20256;-57
2021/05/24 03:45:38;;;;;;;5.15;2.15;;;;;;;;;;5033693;28;20266;-58
2021/05/24 03:48:06;;;;;;;2.63;2.10;;;;;;;;;;5033343;28;20227;-58
2021/05/24 03:50:33;;;;;;;2.60;2.40;;;;;;;;;;5033221;28;20209;-57
2021/05/24 03:53:00;;;;;;;3.20;2.22;;;;;;;;;;5034268;28;20209;-58
2021/05/24 03:55:27;;;;;;;3.10;2.05;;;;;;;;;;5033043;28;20213;-57
2021/05/24 03:57:54;;;;;;;2.40;2.10;;;;;;;;;;5032976;28;20222;-57
2021/05/24 04:00:21;;;;;;;2.05;1.85;;;;;;;;;;5033281;28;20206;-57
2021/05/24 04:02:48;;;;;;;2.17;1.95;;;;;;;;;;5033348;28;20208;-57
2021/05/24 04:08:09;;;;;;;2.37;1.97;;;;;;;;;;5111233;27;20605;-59
2021/05/24 04:10:39;;;;;;;2.70;2.00;;;;;;;;;;5111658;28;20444;-60
2021/05/24 04:13:05;;;;;;;2.97;1.90;;;;;;;;;;5111674;28;20536;-59
2021/05/24 04:15:32;;;;;;;5.37;2.30;;;;;;;;;;5111679;28;20817;-59
2021/05/24 04:18:01;;;;;;;1.90;1.73;;;;;;;;;;5110879;28;20530;-59
2021/05/24 04:20:28;;;;;;;3.20;2.00;;;;;;;;;;5110944;28;20582;-60
2021/05/24 04:22:54;;;;;;;2.53;1.60;;;;;;;;;;5110871;28;20456;-59
2021/05/24 04:25:22;;;;;;;2.57;1.53;;;;;;;;;;5110864;28;20449;-60
2021/05/24 04:27:49;;;;;;;1.70;1.60;;;;;;;;;;5110675;28;20934;-60
2021/05/24 04:30:17;;;;;;;2.10;1.57;;;;;;;;;;5110732;28;20441;-60
2021/05/24 04:32:43;;;;;;;6.60;2.03;;;;;;;;;;5110697;28;20448;-60
2021/05/24 04:35:11;;;;;;;2.63;1.50;;;;;;;;;;5110622;28;20438;-60
2021/05/24 04:37:38;;;;;;;4.13;1.37;;;;;;;;;;5110642;28;20494;-60
2021/05/24 04:40:05;;;;;;;1.43;1.33;;;;;;;;;;5110626;28;20441;-60
2021/05/24 04:42:33;;;;;;;3.47;1.60;;;;;;;;;;5110561;28;20438;-59
2021/05/24 04:44:59;;;;;;;2.67;1.60;;;;;;;;;;5110714;28;20855;-61
2021/05/24 04:47:26;;;;;;;1.93;1.30;;;;;;;;;;5110139;28;20537;-60
2021/05/24 04:49:53;;;;;;;2.57;1.40;;;;;;;;;;5110386;28;20499;-60
2021/05/24 04:52:20;;;;;;;2.37;1.13;;;;;;;;;;5110462;28;20441;-61
2021/05/24 04:54:47;;;;;;;3.67;1.60;;;;;;;;;;5110332;28;20449;-60
2021/05/24 04:57:14;;;;;;;1.40;1.30;;;;;;;;;;5110210;28;20536;-60
2021/05/24 04:59:42;;;;;;;1.43;1.20;;;;;;;;;;5110274;28;20438;-60
2021/05/24 05:02:09;;;;;;;2.80;1.10;;;;;;;;;;5110187;28;20452;-60
2021/05/24 05:04:36;;;;;;;4.93;1.73;;;;;;;;;;5110292;28;20450;-61
2021/05/24 05:07:03;;;;;;;2.27;1.53;;;;;;;;;;5109699;28;20481;-61
2021/05/24 05:09:30;;;;;;;2.80;1.00;;;;;;;;;;5110060;28;20441;-61
2021/05/24 05:11:57;;;;;;;1.87;1.33;;;;;;;;;;5110060;28;20460;-61
2021/05/24 05:14:24;;;;;;;1.90;1.20;;;;;;;;;;5110056;28;20507;-61
2021/05/24 05:16:52;;;;;;;2.00;1.27;;;;;;;;;;5109607;28;20926;-61
2021/05/24 05:19:19;;;;;;;1.43;1.33;;;;;;;;;;5097072;28;20443;-61
2021/05/24 05:21:45;;;;;;;2.07;1.03;;;;;;;;;;5096081;28;20443;-61
2021/05/24 05:24:12;;;;;;;1.80;1.10;;;;;;;;;;5096093;28;20926;-60
2021/05/24 05:26:39;;;;;;;1.30;1.17;;;;;;;;;;5096079;28;20483;-61
2021/05/24 05:29:06;;;;;;;1.80;1.17;;;;;;;;;;5095787;28;20472;-61
2021/05/24 05:31:32;;;;;;;1.70;1.20;;;;;;;;;;5095997;28;20445;-61
2021/05/24 05:34:00;;;;;;;3.83;1.30;;;;;;;;;;5095803;28;20970;-61
2021/05/24 05:36:28;;;;;;;2.90;1.30;;;;;;;;;;5095971;28;20805;-61
2021/05/24 05:38:55;;;;;;;2.10;0.97;;;;;;;;;;5095812;28;20484;-61
2021/05/24 05:41:22;;;;;;;2.17;1.10;;;;;;;;;;5096309;28;20790;-60
2021/05/24 05:43:49;;;;;;;1.80;1.50;;;;;;;;;;5095716;28;20444;-60
2021/05/24 05:46:16;;;;;;;2.53;1.30;;;;;;;;;;5095895;28;20472;-60
2021/05/24 05:48:43;;;;;;;1.60;1.30;;;;;;;;;;5097455;28;20472;-60
2021/05/24 05:51:11;;;;;;;2.67;1.83;;;;;;;;;;5097389;28;20540;-61
2021/05/24 05:53:38;;;;;;;2.70;1.30;;;;;;;;;;5096247;28;20439;-61
2021/05/24 05:56:05;;;;;;;2.07;1.10;;;;;;;;;;5106281;28;20474;-61
2021/05/24 05:58:32;;;;;;;1.90;1.27;;;;;;;;;;5102488;28;20577;-61
2021/05/24 06:01:03;;;;;;;4.70;1.13;;;;;;;;;;5096609;28;20442;-61
2021/05/24 06:03:29;;;;;;;2.13;1.23;;;;;;;;;;5096056;28;20428;-60
2021/05/24 06:05:56;;;;;;;2.50;1.50;;;;;;;;;;5095468;28;20458;-60
2021/05/24 06:08:24;;;;;;;2.10;1.00;;;;;;;;;;5095649;28;20464;-60
2021/05/24 06:10:50;;;;;;;1.47;1.23;;;;;;;;;;5101364;28;20477;-60
2021/05/24 06:13:17;;;;;;;4.47;1.30;;;;;;;;;;5103846;28;20446;-60
2021/05/24 06:15:44;;;;;;;2.00;1.00;;;;;;;;;;5101647;28;20447;-60
2021/05/24 06:18:11;;;;;;;2.13;1.20;;;;;;;;;;5096187;28;20485;-60
2021/05/24 06:20:38;;;;;;;1.80;1.03;;;;;;;;;;5095774;28;20453;-59
2021/05/24 06:23:05;;;;;;;2.40;1.43;;;;;;;;;;5095405;28;20442;-60
2021/05/24 06:25:32;;;;;;;2.97;1.10;;;;;;;;;;5094692;28;20933;-60
2021/05/24 06:27:59;;;;;;;1.73;1.00;;;;;;;;;;5094899;28;20478;-60
2021/05/24 06:30:26;;;;;;;1.10;1.00;;;;;;;;;;5094130;28;20450;-60
2021/05/24 06:32:52;;;;;;;1.37;1.20;;;;;;;;;;5094923;28;20485;-60
2021/05/24 06:35:21;;;;;;;1.40;1.20;;;;;;;;;;5094939;28;20469;-60
2021/05/24 06:37:48;;;;;;;1.33;1.13;;;;;;;;;;5094451;28;20549;-60
2021/05/24 06:40:15;;;;;;;2.20;1.70;;;;;;;;;;5094475;28;20818;-60
2021/05/24 06:42:43;;;;;;;4.70;1.63;;;;;;;;;;5094719;28;20447;-59
2021/05/24 06:45:11;;;;;;;1.90;1.03;;;;;;;;;;5094769;28;20447;-61
2021/05/24 06:47:38;;;;;;;4.20;1.00;;;;;;;;;;5094579;28;20478;-61
2021/05/24 06:50:05;;;;;;;1.63;1.20;;;;;;;;;;5094286;28;20438;-60
2021/05/24 06:52:32;;;;;;;3.77;1.40;;;;;;;;;;5094216;28;20454;-59
2021/05/24 06:54:59;;;;;;;1.57;1.30;;;;;;;;;;5102796;22;20434;-58
2021/05/24 06:57:26;;;;;;;2.20;1.20;;;;;;;;;;5034417;28;20437;-59
2021/05/24 06:59:53;;;;;;;4.33;1.60;;;;;;;;;;5034390;28;20503;-59
2021/05/24 07:02:20;;;;;;;2.00;1.30;;;;;;;;;;5033929;28;20445;-59
2021/05/24 07:04:47;;;;;;;3.17;1.13;;;;;;;;;;5034210;28;20449;-59
2021/05/24 07:07:14;;;;;;;3.73;1.30;;;;;;;;;;5033765;28;20480;-58
2021/05/24 07:09:40;;;;;;;1.87;1.20;;;;;;;;;;5033900;28;20809;-58
2021/05/24 07:12:08;;;;;;;1.63;1.10;;;;;;;;;;5033431;28;20936;-58
2021/05/24 07:14:34;;;;;;;1.50;1.40;;;;;;;;;;5034061;28;20445;-59
2021/05/24 07:17:02;;;;;;;2.07;1.40;;;;;;;;;;5033628;28;20452;-59
2021/05/24 07:19:29;;;;;;;2.33;1.47;;;;;;;;;;5033811;28;20445;-58
2021/05/24 07:21:56;;;;;;;4.13;1.63;;;;;;;;;;5033461;28;20475;-59
2021/05/24 07:24:23;;;;;;;2.23;1.27;;;;;;;;;;5033850;28;20445;-59
2021/05/24 07:26:50;;;;;;;3.53;1.30;;;;;;;;;;5033250;28;21046;-59
2021/05/24 07:29:17;;;;;;;2.53;1.50;;;;;;;;;;5033294;28;20936;-59
2021/05/24 07:31:44;;;;;;;3.57;1.87;;;;;;;;;;5033737;28;20445;-59
2021/05/24 07:34:12;;;;;;;1.90;1.10;;;;;;;;;;5033814;28;20449;-59
2021/05/24 07:36:38;;;;;;;1.70;1.30;;;;;;;;;;5033301;28;20526;-59
2021/05/24 07:39:05;;;;;;;2.43;1.30;;;;;;;;;;5033516;28;20479;-60
2021/05/24 07:41:32;;;;;;;2.53;1.50;;;;;;;;;;5033384;28;20449;-59
2021/05/24 07:43:59;;;;;;;3.00;1.27;;;;;;;;;;5033542;28;20825;-59
2021/05/24 07:46:26;;;;;;;3.20;0.93;;;;;;;;;;5033031;28;20477;-59
2021/05/24 07:48:52;;;;;;;1.97;1.10;;;;;;;;;;5033524;28;20452;-60
2021/05/24 07:51:20;;;;;;;2.83;1.30;;;;;;;;;;5033444;28;20455;-59
2021/05/24 07:53:47;;;;;;;1.77;1.30;;;;;;;;;;5033053;28;20449;-59
2021/05/24 07:56:13;;;;;;;1.23;1.00;;;;;;;;;;5032910;28;20530;-60
2021/05/24 07:58:40;;;;;;;2.20;1.33;;;;;;;;;;5033196;28;20522;-60
2021/05/24 08:01:07;;;;;;;1.80;1.23;;;;;;;;;;5033195;28;20452;-59
2021/05/24 08:03:34;;;;;;;5.90;1.43;;;;;;;;;;5033277;28;20522;-59
2021/05/24 08:06:00;;;;;;;2.13;1.10;;;;;;;;;;5032930;28;20984;-60
2021/05/24 08:08:28;;;;;;;2.50;1.27;;;;;;;;;;5032980;28;20445;-59
2021/05/24 08:10:55;;;;;;;6.80;5.73;;;;;;;;;;5033155;28;20437;-59
2021/05/24 08:13:21;;;;;;;3.37;1.00;;;;;;;;;;5033015;28;20441;-59
2021/05/24 08:15:48;;;;;;;1.47;0.80;;;;;;;;;;5033125;28;20465;-59
2021/05/24 08:18:15;;;;;;;1.90;1.30;;;;;;;;;;5033365;28;20437;-59
2021/05/24 08:20:42;;;;;;;1.73;1.20;;;;;;;;;;5032908;28;20812;-59
2021/05/24 08:23:08;;;;;;;2.60;1.20;;;;;;;;;;5032897;28;20445;-59
2021/05/24 08:25:36;;;;;;;2.23;1.10;;;;;;;;;;5032700;28;20465;-59
2021/05/24 08:28:03;;;;;;;1.77;1.40;;;;;;;;;;5032660;28;20476;-59
2021/05/24 08:30:30;;;;;;;3.93;1.33;;;;;;;;;;5033155;28;20448;-59
2021/05/24 08:32:56;;;;;;;2.23;1.00;;;;;;;;;;5032759;28;20445;-59
2021/05/24 08:35:23;;;;;;;1.33;0.97;;;;;;;;;;5032733;28;20469;-59
2021/05/24 08:37:50;;;;;;;3.30;0.83;;;;;;;;;;5033073;28;20445;-59
2021/05/24 08:40:18;;;;;;;1.83;0.90;;;;;;;;;;5033048;28;20449;-59
2021/05/24 08:42:46;;;;;;;2.10;1.00;;;;;;;;;;5032631;28;20487;-59
2021/05/24 08:45:13;;;;;;;3.43;1.57;;;;;;;;;;5032825;28;20563;-59
2021/05/24 08:47:41;;;;;;;1.70;0.90;;;;;;;;;;5032768;28;20472;-59
2021/05/24 08:50:08;;;;;;;1.77;0.83;;;;;;;;;;5032427;28;20445;-59
2021/05/24 08:52:35;;;;;;;2.70;1.00;;;;;;;;;;5032717;28;20453;-59
2021/05/24 08:55:02;;;;;;;2.10;1.10;;;;;;;;;;5036352;28;20498;-60
2021/05/24 08:57:28;;;;;;;3.97;1.20;;;;;;;;;;5036743;28;20846;-59
2021/05/24 08:59:56;;;;;;;1.33;1.03;;;;;;;;;;5036447;28;20475;-59
2021/05/24 09:02:23;;;;;;;3.10;1.23;;;;;;;;;;5036441;28;20494;-59
2021/05/24 09:04:50;;;;;;;2.73;1.20;;;;;;;;;;5035971;28;20446;-59
2021/05/24 09:07:18;;;;;;;2.20;1.07;;;;;;;;;;5036299;28;20484;-59
2021/05/24 09:09:59;;;;;;;2.13;0.93;;;;;;;;;;5036019;28;20828;-58
2021/05/24 09:12:31;;;;;;;2.40;0.90;;;;;;;;;;5035950;28;20932;-59
2021/05/24 09:14:59;;;;;;;1.50;0.97;;;;;;;;;;5036155;28;20465;-58
2021/05/24 09:17:26;;;;;;;1.50;1.40;;;;;;;;;;5035808;28;20528;-59
2021/05/24 09:19:53;;;;;;;2.30;1.10;;;;;;;;;;5036160;28;20460;-59
2021/05/24 09:22:23;;;;;;;2.53;1.00;;;;;;;;;;5036131;28;20449;-59
2021/05/24 09:24:51;;;;;;;2.87;1.07;;;;;;;;;;5035791;28;20914;-58
2021/05/24 09:27:25;;;;;;;1.20;0.93;;;;;;;;;;5036010;28;20481;-59
2021/05/24 09:29:53;;;;;;;1.90;0.97;;;;;;;;;;5036104;28;20433;-59
2021/05/24 09:32:24;;;;;;;1.57;0.80;;;;;;;;;;5036003;28;20449;-58
2021/05/24 09:34:51;;;;;;;1.17;0.70;;;;;;;;;;5035262;28;20429;-59
2021/05/24 09:37:20;;;;;;;1.40;0.90;;;;;;;;;;5035862;28;20477;-59
2021/05/24 09:39:47;;;;;;;1.47;0.80;;;;;;;;;;5035415;28;20964;-59
2021/05/24 09:42:14;;;;;;;3.03;1.10;;;;;;;;;;5035360;28;20453;-59
2021/05/24 09:44:45;;;;;;;4.07;1.20;;;;;;;;;;5035632;28;20450;-59
2021/05/24 09:47:12;;;;;;;4.30;1.07;;;;;;;;;;5035449;28;20835;-59
2021/05/24 09:49:39;;;;;;;2.70;0.90;;;;;;;;;;5035628;28;20452;-58
2021/05/24 09:52:06;;;;;;;3.80;0.90;;;;;;;;;;5035279;28;20499;-58
2021/05/24 09:54:34;;;;;;;2.13;1.00;;;;;;;;;;5035231;28;20447;-58
2021/05/24 09:57:05;;;;;;;2.23;1.00;;;;;;;;;;5034895;28;20516;-58
2021/05/24 09:59:33;;;;;;;1.50;0.93;;;;;;;;;;5035300;28;20432;-58
2021/05/24 10:02:01;;;;;;;1.97;0.90;;;;;;;;;;5034893;28;20990;-58
2021/05/24 10:04:29;;;;;;;2.57;1.13;;;;;;;;;;5035140;28;20822;-59
2021/05/24 10:06:57;;;;;;;1.60;0.93;;;;;;;;;;5035119;28;20494;-59
2021/05/24 10:09:25;;;;;;;1.13;0.97;;;;;;;;;;5034811;28;21015;-58
2021/05/24 10:11:52;;;;;;;1.33;1.00;;;;;;;;;;5035032;28;20452;-59
2021/05/24 10:14:20;;;;;;;2.80;0.90;;;;;;;;;;5034784;28;20456;-59
2021/05/24 10:16:48;;;;;;;1.70;1.30;;;;;;;;;;5034897;28;20464;-59
2021/05/24 10:19:17;;;;;;;1.83;1.10;;;;;;;;;;5034655;28;21030;-59
2021/05/24 10:21:44;;;;;;;1.20;0.90;;;;;;;;;;5035238;28;20493;-59
2021/05/24 10:24:12;;;;;;;2.23;1.40;;;;;;;;;;5034889;28;20459;-59
2021/05/24 10:26:40;;;;;;;1.90;1.20;;;;;;;;;;5034503;28;20487;-59
2021/05/24 10:29:07;;;;;;;2.43;1.30;;;;;;;;;;5034375;28;20812;-59
2021/05/24 10:31:34;;;;;;;1.20;0.83;;;;;;;;;;5034903;28;20451;-59
2021/05/24 10:34:09;;;;;;;3.53;1.20;;;;;;;;;;5034700;28;20453;-58
2021/05/24 10:36:36;;;;;;;1.50;0.80;;;;;;;;;;5034290;28;20471;-58
2021/05/24 10:39:07;;;;;;;1.90;1.30;;;;;;;;;;5034582;28;20444;-58
2021/05/24 10:41:48;;;;;;;1.93;1.00;;;;;;;;;;5034657;28;20453;-59
2021/05/24 10:44:16;;;;;;;1.80;1.00;;;;;;;;;;5034599;28;20509;-59
2021/05/24 10:46:43;;;;;;;1.73;0.97;;;;;;;;;;5034027;28;20522;-59
2021/05/24 10:49:17;;;;;;;1.63;0.93;;;;;;;;;;5034431;28;20452;-58
2021/05/24 10:52:04;;;;;;;1.43;0.80;;;;;;;;;;5034388;28;20447;-59
2021/05/24 10:54:33;;;;;;;4.73;1.10;;;;;;;;;;5034004;28;20474;-59
2021/05/24 10:57:12;;;;;;;3.00;1.33;;;;;;;;;;5034209;28;20454;-59
2021/05/24 11:00:03;;;;;;;2.03;0.90;;;;;;;;;;5033957;28;20921;-59
2021/05/24 11:02:37;;;;;;;1.57;0.70;;;;;;;;;;5034249;28;20760;-58
2021/05/24 11:05:08;;;;;;;2.10;0.97;;;;;;;;;;5033970;28;20462;-59
2021/05/24 11:07:36;;;;;;;1.20;0.80;;;;;;;;;;5033952;28;20478;-59
2021/05/24 11:10:22;;;;;;;1.50;0.97;;;;;;;;;;5033993;28;20454;-59
2021/05/24 11:12:51;;;;;;;1.10;0.90;;;;;;;;;;5034038;28;20859;-58
2021/05/24 11:15:19;;;;;;;1.90;0.70;;;;;;;;;;5033553;28;20461;-59
2021/05/24 11:18:16;;;;;;;2.00;0.80;;;;;;;;;;5033183;28;20453;-58
2021/05/24 11:20:47;;;;;;;2.93;0.87;;;;;;;;;;4953022;29;20972;-57
2021/05/24 11:23:21;;;;;;;1.47;0.83;;;;;;;;;;5017355;28;20869;-59
2021/05/24 11:25:56;;;;;;;1.73;0.90;;;;;;;;;;5033718;28;20472;-59
2021/05/24 11:28:32;;;;;;;2.13;0.80;;;;;;;;;;5033433;28;20565;-58
2021/05/24 11:31:10;;;;;;;3.37;1.30;;;;;;;;;;5033392;28;20528;-59
2021/05/24 11:33:38;;;;;;;1.80;1.00;;;;;;;;;;5034476;28;20509;-59
2021/05/24 11:36:05;;;;;;;2.17;0.63;;;;;;;;;;5033203;28;20527;-59
2021/05/24 11:38:32;;;;;;;1.30;0.90;;;;;;;;;;5033116;28;20954;-59
2021/05/24 11:41:09;;;;;;;1.63;0.77;;;;;;;;;;5034055;28;20444;-58
2021/05/24 11:43:39;;;;;;;3.27;1.53;;;;;;;;;;5033205;28;20459;-59
2021/05/24 11:46:06;;;;;;;1.13;0.80;;;;;;;;;;5033595;28;20474;-58
2021/05/24 11:48:43;;;;;;;1.20;0.80;;;;;;;;;;5033260;28;20855;-58
2021/05/24 11:51:10;;;;;;;1.80;1.23;;;;;;;;;;5033595;28;20805;-58
2021/05/24 11:53:38;;;;;;;1.87;0.90;;;;;;;;;;5033752;28;20453;-57
2021/05/24 11:56:08;;;;;;;1.40;0.80;;;;;;;;;;5033636;28;20481;-57
2021/05/24 11:58:50;;;;;;;1.10;0.63;;;;;;;;;;5034879;28;20458;-57
2021/05/24 12:01:17;;;;;;;3.77;1.00;;;;;;;;;;5033753;28;20440;-58
2021/05/24 12:03:47;;;;;;;1.83;0.87;;;;;;;;;;5033823;28;20998;-57
2021/05/24 12:06:13;;;;;;;1.20;0.80;;;;;;;;;;5034247;28;20467;-58
2021/05/24 12:08:41;;;;;;;1.73;1.10;;;;;;;;;;5034280;28;20476;-57
2021/05/24 12:11:08;;;;;;;1.10;0.90;;;;;;;;;;5033813;28;20532;-57
2021/05/24 12:13:50;;;;;;;2.70;0.97;;;;;;;;;;5033912;28;20446;-57
2021/05/24 12:16:17;;;;;;;2.40;1.10;;;;;;;;;;5033762;28;20469;-57
2021/05/24 12:18:51;;;;;;;1.90;1.00;;;;;;;;;;5033923;28;20436;-57
2021/05/24 12:21:31;;;;;;;1.90;0.80;;;;;;;;;;5034029;28;20442;-57
2021/05/24 12:23:58;;;;;;;1.67;1.00;;;;;;;;;;5033777;28;20520;-57
2021/05/24 12:26:25;;;;;;;1.30;0.70;;;;;;;;;;5033975;28;20530;-57
2021/05/24 12:28:52;;;;;;;2.43;0.70;;;;;;;;;;5036192;28;20990;-56
2021/05/24 12:31:21;;;;;;;1.13;0.70;;;;;;;;;;5038155;28;20518;-57
2021/05/24 12:33:48;;;;;;;1.77;0.90;;;;;;;;;;5038149;28;20452;-57
2021/05/24 12:36:17;;;;;;;3.10;0.80;;;;;;;;;;5037518;28;20471;-57
2021/05/24 12:38:46;;;;;;;1.70;0.80;;;;;;;;;;5038323;28;20448;-57
2021/05/24 12:41:15;;;;;;;1.50;0.80;;;;;;;;;;5037484;28;20449;-57
2021/05/24 12:43:52;;;;;;;1.83;0.97;;;;;;;;;;5037904;28;20500;-58
2021/05/24 12:46:20;;;;;;;1.57;0.90;;;;;;;;;;5037858;28;20476;-57
2021/05/24 12:48:51;;;;;;;2.53;1.17;;;;;;;;;;5037609;28;20855;-57
2021/05/24 12:51:19;;;;;;;1.03;0.93;;;;;;;;;;5037339;28;20909;-58
2021/05/24 12:53:57;;;;;;;2.10;0.90;;;;;;;;;;5037602;28;20533;-58
2021/05/24 12:56:24;;;;;;;1.47;0.80;;;;;;;;;;5036937;28;20484;-57
2021/05/24 12:58:50;;;;;;;1.33;0.80;;;;;;;;;;5037150;28;20924;-58
2021/05/24 13:01:31;;;;;;;2.13;0.80;;;;;;;;;;5061480;22;20520;-60
2021/05/24 13:04:06;;;;;;;1.93;0.80;;;;;;;;;;5036898;28;20465;-61
2021/05/24 13:06:36;;;;;;;3.43;1.37;;;;;;;;;;5036181;28;20434;-61
2021/05/24 13:09:04;;;;;;;1.37;0.90;;;;;;;;;;5035870;28;20446;-60
2021/05/24 13:11:47;;;;;;;6.50;3.90;;;;;;;;;;5035794;28;20465;-61
2021/05/24 13:14:20;;;;;;;2.00;1.67;;;;;;;;;;5036235;28;20898;-60
2021/05/24 13:17:02;;;;;;;7.87;7.07;;;;;;;;;;5035899;28;20918;-61
2021/05/24 13:19:41;;;;;;;8.70;3.77;;;;;;;;;;5035804;28;20471;-58
2021/05/24 13:30:28;;;;;;;1.60;1.10;;;;;;;;;;5035816;28;20520;-59
2021/05/24 13:32:56;;;;;;;1.30;0.73;;;;;;;;;;5035696;28;20449;-58
2021/05/24 13:35:24;;;;;;;2.37;0.87;;;;;;;;;;5035698;28;20860;-59
2021/05/24 13:37:51;;;;;;;1.43;0.80;;;;;;;;;;5035568;28;20455;-59
2021/05/24 13:40:19;;;;;;;1.07;0.80;;;;;;;;;;5035353;28;20467;-60
2021/05/24 13:42:47;;;;;;;1.23;0.80;;;;;;;;;;5035553;28;20977;-59
2021/05/24 13:45:14;;;;;;;1.47;1.00;;;;;;;;;;5035706;28;20482;-60
2021/05/24 13:47:43;;;;;;;1.33;0.83;;;;;;;;;;5035150;28;20490;-60
2021/05/24 13:50:10;;;;;;;2.10;0.70;;;;;;;;;;5035548;28;20472;-61
2021/05/24 13:52:38;;;;;;;1.50;0.83;;;;;;;;;;5035089;28;20942;-59
2021/05/24 13:55:06;;;;;;;1.30;1.00;;;;;;;;;;5034815;28;20480;-60
2021/05/24 13:57:33;;;;;;;1.20;0.80;;;;;;;;;;5034878;28;21025;-60
2021/05/24 14:00:00;;;;;;;1.53;0.93;;;;;;;;;;5034764;28;20478;-59
2021/05/24 14:02:27;;;;;;;1.93;1.13;;;;;;;;;;5035214;28;20422;-58
2021/05/24 14:04:54;;;;;;;2.03;0.90;;;;;;;;;;5034323;28;20449;-59
2021/05/24 14:07:21;;;;;;;1.83;0.90;;;;;;;;;;5035027;28;20479;-60
2021/05/24 14:09:48;;;;;;;1.93;0.97;;;;;;;;;;5034820;28;20493;-59
2021/05/24 14:12:15;;;;;;;1.00;0.70;;;;;;;;;;5034598;28;20485;-59
2021/05/24 14:14:42;;;;;;;1.53;0.80;;;;;;;;;;5034752;28;20910;-59
2021/05/24 14:17:09;;;;;;;1.40;0.80;;;;;;;;;;5034940;28;20450;-61
2021/05/24 14:19:36;;;;;;;1.50;0.67;;;;;;;;;;5034962;28;20822;-60
2021/05/24 14:22:03;;;;;;;0.90;0.60;;;;;;;;;;5034773;28;20876;-61
2021/05/24 14:24:29;;;;;;;2.00;0.80;;;;;;;;;;5039172;28;20448;-60
2021/05/24 14:26:58;;;;;;;1.10;0.77;;;;;;;;;;5039265;28;21009;-60
2021/05/24 14:29:25;;;;;;;5.43;1.13;;;;;;;;;;5036970;28;20960;-59
2021/05/24 14:31:52;;;;;;;2.07;0.77;;;;;;;;;;5041593;28;20961;-60
2021/05/24 14:34:18;;;;;;;1.30;1.00;;;;;;;;;;5039719;28;20940;-62
2021/05/24 14:36:45;;;;;;;1.27;0.83;;;;;;;;;;5035020;28;20451;-60
2021/05/24 14:39:12;;;;;;;1.10;0.70;;;;;;;;;;5034789;28;20447;-60
2021/05/24 14:41:39;;;;;;;2.80;0.80;;;;;;;;;;5034562;28;20463;-59
2021/05/24 14:44:06;;;;;;;1.50;0.80;;;;;;;;;;5034896;28;20525;-60
2021/05/24 14:46:33;;;;;;;1.23;0.60;;;;;;;;;;5033994;28;20471;-59
2021/05/24 14:49:01;;;;;;;1.77;0.90;;;;;;;;;;5033813;28;20484;-59
2021/05/24 14:51:32;;;;;;;1.97;0.70;;;;;;;;;;5033144;28;20520;-60
2021/05/24 14:53:59;;;;;;;1.93;0.77;;;;;;;;;;5034266;28;20427;-60
2021/05/24 14:56:26;;;;;;;1.00;0.60;;;;;;;;;;5034598;28;20503;-60
2021/05/24 14:58:52;;;;;;;1.43;0.80;;;;;;;;;;5034184;28;20451;-59
2021/05/24 15:01:20;;;;;;;2.10;0.70;;;;;;;;;;5033392;28;20483;-60